Time;durP1;ratioP1;P1;durP2;ratioP2;P2;SDS_P1;SDS_P2;PMS_P1;PMS_P2;Temp;Humidity;BMP_temperature;BMP_pressure;BME280_temperature;BME280_humidity;BME280_pressure;Samples;Min_cycle;Max_cycle;Signal;HPM_P1;HPM_P2
2024/02/17 00:01:44;;;;;;;;;;;;;;;3.70;100.00;100689.44;5132136;28;914;-59
2024/02/17 00:04:10;;;;;;;;;;;;;;;3.64;100.00;100692.34;5132249;28;831;-59
2024/02/17 00:06:37;;;;;;;;;;;;;;;3.64;100.00;100686.09;5131884;28;1910;-59
2024/02/17 00:09:03;;;;;;;;;;;;;;;3.59;100.00;100686.28;5132183;28;847;-59
2024/02/17 00:11:30;;;;;;;;;;;;;;;3.56;100.00;100692.41;5115613;27;1091;-59
2024/02/17 00:13:57;;;;;;;;;;;;;;;3.58;100.00;100690.94;5136129;27;826;-59
2024/02/17 00:16:24;;;;;;;;;;;;;;;3.61;100.00;100690.28;5135743;27;855;-59
2024/02/17 00:18:50;;;;;;;;;;;;;;;3.55;100.00;100699.81;5117174;27;1185;-59
2024/02/17 00:21:17;;;;;;;;;;;;;;;3.46;100.00;100694.41;5135589;27;843;-59
2024/02/17 00:23:44;;;;;;;;;;;;;;;3.40;100.00;100694.94;5135846;27;827;-59
2024/02/17 00:26:10;;;;;;;;;;;;;;;3.39;100.00;100688.69;5135348;27;1889;-59
2024/02/17 00:28:37;;;;;;;;;;;;;;;3.43;100.00;100692.34;5135405;27;918;-59
2024/02/17 00:31:03;;;;;;;;;;;;;;;3.45;100.00;100692.81;5135403;27;859;-59
2024/02/17 00:33:30;;;;;;;;;;;;;;;3.45;100.00;100698.28;5135367;27;898;-59
2024/02/17 00:35:57;;;;;;;;;;;;;;;3.37;100.00;100687.41;5135676;27;822;-59
2024/02/17 00:38:24;;;;;;;;;;;;;;;3.29;100.00;100689.06;5135563;27;847;-59
2024/02/17 00:40:51;;;;;;;;;;;;;;;3.29;100.00;100689.06;5135365;27;830;-59
2024/02/17 00:43:17;;;;;;;;;;;;;;;3.26;100.00;100687.81;5135210;27;910;-59
2024/02/17 00:45:48;;;;;;;;;;;;;;;3.20;100.00;100685.56;5134936;27;1885;-59
2024/02/17 00:48:15;;;;;;;;;;;;;;;3.20;100.00;100680.13;5134951;27;961;-59
2024/02/17 00:50:42;;;;;;;;;;;;;;;3.17;100.00;100689.78;5135101;27;885;-59
2024/02/17 00:53:09;;;;;;;;;;;;;;;3.18;100.00;100685.94;5134995;27;940;-59
2024/02/17 00:55:34;;;;;;;;;;;;;;;3.16;100.00;100674.53;5135003;27;967;-60
2024/02/17 00:58:02;;;;;;;;;;;;;;;3.18;100.00;100676.91;5134760;27;925;-59
2024/02/17 01:00:29;;;;;;;;;;;;;;;3.21;100.00;100674.31;5134797;27;799;-59
2024/02/17 01:02:55;;;;;;;;;;;;;;;3.21;100.00;100673.53;5134738;27;910;-59
2024/02/17 01:05:22;;;;;;;;;;;;;;;3.19;100.00;100670.34;5134644;27;1909;-59
2024/02/17 01:07:49;;;;;;;;;;;;;;;3.14;100.00;100670.53;5134752;27;863;-59
2024/02/17 01:10:15;;;;;;;;;;;;;;;3.11;100.00;100671.19;5134546;27;937;-59
2024/02/17 01:12:42;;;;;;;;;;;;;;;3.15;100.00;100672.13;5134610;27;1628;-59
2024/02/17 01:15:09;;;;;;;;;;;;;;;3.19;100.00;100671.13;5134573;27;957;-59
2024/02/17 01:17:36;;;;;;;;;;;;;;;3.20;100.00;100669.19;5134334;27;948;-59
2024/02/17 01:20:03;;;;;;;;;;;;;;;3.18;100.00;100671.44;5134668;27;1084;-59
2024/02/17 01:22:30;;;;;;;;;;;;;;;3.18;100.00;100677.72;5133763;27;925;-59
2024/02/17 01:24:58;;;;;;;;;;;;;;;3.16;100.00;100671.81;5134358;27;1948;-60
2024/02/17 01:27:24;;;;;;;;;;;;;;;3.17;100.00;100669.84;5134103;27;882;-59
2024/02/17 01:29:51;;;;;;;;;;;;;;;3.18;100.00;100671.44;5134331;27;831;-59
2024/02/17 01:32:18;;;;;;;;;;;;;;;3.15;100.00;100667.44;5134208;27;847;-59
2024/02/17 01:34:44;;;;;;;;;;;;;;;3.18;100.00;100660.53;5134178;27;855;-59
2024/02/17 01:37:11;;;;;;;;;;;;;;;3.19;100.00;100660.19;5134203;27;819;-59
2024/02/17 01:39:39;;;;;;;;;;;;;;;3.30;100.00;100671.53;5134088;27;819;-60
2024/02/17 01:42:05;;;;;;;;;;;;;;;3.38;100.00;100669.88;5133901;27;822;-59
2024/02/17 01:44:32;;;;;;;;;;;;;;;3.38;100.00;100667.16;5134009;27;1081;-60
2024/02/17 01:46:59;;;;;;;;;;;;;;;3.40;100.00;100684.03;5133591;27;1893;-59
2024/02/17 01:49:26;;;;;;;;;;;;;;;3.45;100.00;100675.59;5133802;27;910;-59
2024/02/17 01:51:53;;;;;;;;;;;;;;;3.48;100.00;100678.50;5134006;27;890;-59
2024/02/17 01:54:20;;;;;;;;;;;;;;;3.47;100.00;100687.81;5133637;27;934;-59
2024/02/17 01:56:47;;;;;;;;;;;;;;;3.49;100.00;100679.28;5133702;27;867;-59
2024/02/17 01:59:14;;;;;;;;;;;;;;;3.48;100.00;100675.75;5133692;27;807;-59
2024/02/17 02:01:43;;;;;;;;;;;;;;;3.44;100.00;100682.22;5133558;27;918;-59
2024/02/17 02:04:10;;;;;;;;;;;;;;;3.49;100.00;100676.53;5133539;27;906;-59
2024/02/17 02:06:40;;;;;;;;;;;;;;;3.39;100.00;100677.75;5133432;27;1910;-59
2024/02/17 02:09:07;;;;;;;;;;;;;;;3.37;100.00;100669.09;5115239;27;1135;-59
2024/02/17 02:11:33;;;;;;;;;;;;;;;3.42;100.00;100673.56;5133553;27;827;-59
2024/02/17 02:14:16;;;;;;;;;;;;;;;3.39;100.00;100682.41;5133436;27;816;-59
2024/02/17 02:16:43;;;;;;;;;;;;;;;3.36;100.00;100675.69;5133181;27;934;-59
2024/02/17 02:19:10;;;;;;;;;;;;;;;3.37;100.00;100681.94;5133282;27;993;-59
2024/02/17 02:21:37;;;;;;;;;;;;;;;3.41;100.00;100691.88;5133330;27;827;-59
2024/02/17 02:24:04;;;;;;;;;;;;;;;3.38;100.00;100687.06;5133238;27;898;-59
2024/02/17 02:26:31;;;;;;;;;;;;;;;3.32;100.00;100682.94;5133151;27;1886;-59
2024/02/17 02:28:58;;;;;;;;;;;;;;;3.28;100.00;100682.78;5133194;27;787;-59
2024/02/17 02:31:25;;;;;;;;;;;;;;;3.26;100.00;100687.81;5133034;27;918;-59
2024/02/17 02:33:52;;;;;;;;;;;;;;;3.22;100.00;100672.38;5132657;27;842;-59
2024/02/17 02:36:20;;;;;;;;;;;;;;;3.14;100.00;100684.19;5132979;27;945;-59
2024/02/17 02:38:47;;;;;;;;;;;;;;;3.18;100.00;100693.31;5114594;27;966;-59
2024/02/17 02:41:14;;;;;;;;;;;;;;;3.17;100.00;100691.72;5133051;27;815;-59
2024/02/17 02:43:42;;;;;;;;;;;;;;;3.23;100.00;100693.91;5132944;27;909;-59
2024/02/17 02:46:09;;;;;;;;;;;;;;;3.30;100.00;100678.94;5132721;27;1890;-59
2024/02/17 02:48:36;;;;;;;;;;;;;;;3.33;100.00;100684.56;5132927;27;858;-59
2024/02/17 02:51:03;;;;;;;;;;;;;;;3.34;100.00;100691.59;5132905;27;890;-59
2024/02/17 02:53:30;;;;;;;;;;;;;;;3.31;100.00;100689.53;5132722;27;958;-59
2024/02/17 02:55:57;;;;;;;;;;;;;;;3.34;100.00;100688.06;5132956;27;921;-59
2024/02/17 02:58:23;;;;;;;;;;;;;;;3.36;100.00;100688.53;5132640;28;929;-59
2024/02/17 03:00:50;;;;;;;;;;;;;;;3.37;100.00;100695.59;5132982;28;831;-59
2024/02/17 03:03:17;;;;;;;;;;;;;;;3.33;100.00;100702.84;5132754;28;915;-59
2024/02/17 03:05:44;;;;;;;;;;;;;;;3.35;100.00;100697.84;5132794;28;1941;-60
2024/02/17 03:08:11;;;;;;;;;;;;;;;3.34;100.00;100704.47;5114307;28;827;-59
2024/02/17 03:10:38;;;;;;;;;;;;;;;3.33;100.00;100700.94;5132611;28;863;-59
2024/02/17 03:13:05;;;;;;;;;;;;;;;3.32;100.00;100709.47;5132674;28;933;-59
2024/02/17 03:15:32;;;;;;;;;;;;;;;3.32;100.00;100702.06;5132862;28;854;-59
2024/02/17 03:17:59;;;;;;;;;;;;;;;3.33;100.00;100709.16;5114217;28;1199;-59
2024/02/17 03:20:25;;;;;;;;;;;;;;;3.27;100.00;100708.53;5132462;28;948;-59
2024/02/17 03:22:52;;;;;;;;;;;;;;;3.35;100.00;100712.34;5114123;28;1284;-59
2024/02/17 03:25:19;;;;;;;;;;;;;;;3.27;100.00;100724.91;5132495;28;1890;-59
2024/02/17 03:27:45;;;;;;;;;;;;;;;3.31;100.00;100716.03;5132665;28;852;-59
2024/02/17 03:30:12;;;;;;;;;;;;;;;3.34;100.00;100713.47;5132659;28;831;-59
2024/02/17 03:32:39;;;;;;;;;;;;;;;3.35;100.00;100720.53;5132486;28;926;-59
2024/02/17 03:35:07;;;;;;;;;;;;;;;3.32;100.00;100715.72;5132691;28;875;-59
2024/02/17 03:37:34;;;;;;;;;;;;;;;3.32;100.00;100715.72;5132287;28;942;-60
2024/02/17 03:40:01;;;;;;;;;;;;;;;3.28;100.00;100725.72;5132684;28;815;-59
2024/02/17 03:42:27;;;;;;;;;;;;;;;3.31;100.00;100718.78;5132343;28;873;-60
2024/02/17 03:44:54;;;;;;;;;;;;;;;3.24;100.00;100717.41;5133764;27;910;-59
2024/02/17 03:47:21;;;;;;;;;;;;;;;3.20;100.00;100716.44;5136092;27;1963;-60
2024/02/17 03:49:48;;;;;;;;;;;;;;;3.19;100.00;100722.25;5136466;27;823;-59
2024/02/17 03:52:15;;;;;;;;;;;;;;;3.17;100.00;100721.75;5136366;27;934;-60
2024/02/17 03:54:42;;;;;;;;;;;;;;;3.20;100.00;100715.63;5136188;27;960;-59
2024/02/17 03:57:08;;;;;;;;;;;;;;;3.18;100.00;100712.44;5136086;27;956;-59
2024/02/17 03:59:35;;;;;;;;;;;;;;;3.19;100.00;100722.25;5136616;27;878;-60
2024/02/17 04:02:02;;;;;;;;;;;;;;;3.18;100.00;100717.88;5136234;27;1645;-59
2024/02/17 04:04:29;;;;;;;;;;;;;;;3.04;100.00;100726.34;5136217;27;1284;-59
2024/02/17 04:06:55;;;;;;;;;;;;;;;2.97;100.00;100726.84;5136248;27;1974;-59
2024/02/17 04:09:23;;;;;;;;;;;;;;;2.91;100.00;100722.69;5135948;27;1368;-59
2024/02/17 04:11:51;;;;;;;;;;;;;;;2.86;100.00;100731.09;5136502;27;898;-59
2024/02/17 04:14:18;;;;;;;;;;;;;;;2.90;100.00;100726.53;5135786;27;879;-59
2024/02/17 04:16:45;;;;;;;;;;;;;;;2.95;100.00;100731.84;5135925;27;803;-60
2024/02/17 04:19:11;;;;;;;;;;;;;;;2.91;100.00;100725.44;5135689;27;914;-59
2024/02/17 04:21:38;;;;;;;;;;;;;;;2.90;100.00;100726.53;5135918;27;821;-59
2024/02/17 04:24:05;;;;;;;;;;;;;;;2.91;100.00;100730.09;5135916;27;894;-59
2024/02/17 04:26:32;;;;;;;;;;;;;;;2.88;100.00;100733.47;5135728;27;1881;-59
2024/02/17 04:28:58;;;;;;;;;;;;;;;2.84;100.00;100734.13;5135697;27;1362;-59
2024/02/17 04:31:24;;;;;;;;;;;;;;;2.78;100.00;100729.19;5135364;27;1325;-60
2024/02/17 04:33:51;;;;;;;;;;;;;;;2.80;100.00;100727.72;5135357;27;879;-59
2024/02/17 04:36:16;;;;;;;;;;;;;;;2.74;100.00;100730.97;5135319;27;819;-60
2024/02/17 04:38:43;;;;;;;;;;;;;;;2.74;100.00;100728.22;5135417;27;834;-59
2024/02/17 04:41:10;;;;;;;;;;;;;;;2.76;100.00;100728.72;5135207;27;831;-60
2024/02/17 04:43:36;;;;;;;;;;;;;;;2.77;100.00;100730.28;5135237;27;890;-59
2024/02/17 04:46:03;;;;;;;;;;;;;;;2.67;100.00;100736.94;5135008;27;1885;-60
2024/02/17 04:48:31;;;;;;;;;;;;;;;2.63;100.00;100730.53;5135018;27;949;-60
2024/02/17 04:50:57;;;;;;;;;;;;;;;2.66;100.00;100736.09;5135031;27;836;-59
2024/02/17 04:53:24;;;;;;;;;;;;;;;2.72;100.00;100744.94;5135033;27;1398;-59
2024/02/17 04:55:51;;;;;;;;;;;;;;;2.74;100.00;100741.88;5116371;27;870;-59
2024/02/17 04:58:18;;;;;;;;;;;;;;;2.71;100.00;100743.34;5134398;27;917;-60
2024/02/17 05:00:48;;;;;;;;;;;;;;;2.71;100.00;100748.81;5135030;27;986;-59
2024/02/17 05:03:18;;;;;;;;;;;;;;;2.71;100.00;100745.25;5134835;27;832;-60
2024/02/17 05:05:44;;;;;;;;;;;;;;;2.62;100.00;100754.28;5134907;27;1960;-60
2024/02/17 05:08:11;;;;;;;;;;;;;;;2.65;100.00;100750.09;5134855;27;910;-60
2024/02/17 05:10:41;;;;;;;;;;;;;;;2.63;100.00;100744.97;5134987;27;832;-59
2024/02/17 05:13:08;;;;;;;;;;;;;;;2.64;100.00;100757.47;5134914;27;906;-60
2024/02/17 05:15:34;;;;;;;;;;;;;;;2.66;100.00;100762.59;5134609;27;815;-60
2024/02/17 05:18:02;;;;;;;;;;;;;;;2.65;100.00;100755.56;5116126;27;1688;-59
2024/02/17 05:20:29;;;;;;;;;;;;;;;2.54;100.00;100767.94;5134408;27;989;-59
2024/02/17 05:22:56;;;;;;;;;;;;;;;2.55;100.00;100761.38;5134454;27;855;-60
2024/02/17 05:25:23;;;;;;;;;;;;;;;2.55;100.00;100767.63;5134313;27;1929;-60
2024/02/17 05:27:49;;;;;;;;;;;;;;;2.53;100.00;100772.59;5134580;27;843;-60
2024/02/17 05:30:17;;;;;;;;;;;;;;;2.55;100.00;100770.34;5134279;27;890;-60
2024/02/17 05:32:44;;;;;;;;;;;;;;;2.56;100.00;100782.88;5134613;27;851;-60
2024/02/17 05:35:11;;;;;;;;;;;;;;;2.54;100.00;100779.69;5134217;27;894;-60
2024/02/17 05:37:38;;;;;;;;;;;;;;;2.56;100.00;100777.41;5134097;27;827;-60
2024/02/17 05:40:06;;;;;;;;;;;;;;;2.59;100.00;100784.94;5134058;27;922;-60
2024/02/17 05:42:36;;;;;;;;;;;;;;;2.63;100.00;100788.63;5133968;27;941;-60
2024/02/17 05:45:04;;;;;;;;;;;;;;;2.63;100.00;100798.75;5133935;27;949;-60
2024/02/17 05:47:30;;;;;;;;;;;;;;;2.66;100.00;100801.63;5134061;27;1874;-59
2024/02/17 05:49:59;;;;;;;;;;;;;;;2.64;100.00;100801.16;5133868;27;839;-60
2024/02/17 05:52:26;;;;;;;;;;;;;;;2.63;100.00;100805.00;5133741;27;935;-60
2024/02/17 05:54:53;;;;;;;;;;;;;;;2.58;100.00;100804.38;5133748;27;855;-60
2024/02/17 05:57:20;;;;;;;;;;;;;;;2.51;100.00;100813.06;5133750;27;902;-60
2024/02/17 05:59:46;;;;;;;;;;;;;;;2.45;100.00;100808.88;5133577;27;973;-59
2024/02/17 06:02:13;;;;;;;;;;;;;;;2.40;100.00;100822.72;5133731;27;887;-59
2024/02/17 06:04:40;;;;;;;;;;;;;;;2.39;100.00;100826.53;5133635;27;871;-59
2024/02/17 06:07:07;;;;;;;;;;;;;;;2.41;100.00;100827.03;5133419;27;1980;-60
2024/02/17 06:09:33;;;;;;;;;;;;;;;2.37;100.00;100835.06;5133496;27;897;-60
2024/02/17 06:12:00;;;;;;;;;;;;;;;2.31;100.00;100832.84;5133755;27;843;-60
2024/02/17 06:14:27;;;;;;;;;;;;;;;2.25;100.00;100832.97;5133552;27;914;-60
2024/02/17 06:16:54;;;;;;;;;;;;;;;2.22;100.00;100836.34;5133592;27;933;-60
2024/02/17 06:22:06;;;;;;;;;;;;;;;2.21;100.00;100839.41;5133371;27;792;-60
2024/02/17 06:24:33;;;;;;;;;;;;;;;2.30;100.00;100834.72;5133278;27;910;-60
2024/02/17 06:26:59;;;;;;;;;;;;;;;2.33;100.00;100841.50;5133235;27;1905;-60
2024/02/17 06:29:26;;;;;;;;;;;;;;;2.18;100.00;100849.03;5133250;27;843;-60
2024/02/17 06:31:52;;;;;;;;;;;;;;;2.13;100.00;100851.91;5133162;27;875;-60
2024/02/17 06:34:19;;;;;;;;;;;;;;;2.16;100.00;100859.47;5133084;27;901;-60
2024/02/17 06:36:46;;;;;;;;;;;;;;;2.13;100.00;100851.09;5133093;27;870;-60
2024/02/17 06:39:13;;;;;;;;;;;;;;;2.10;100.00;100855.28;5133127;27;811;-60
2024/02/17 06:41:39;;;;;;;;;;;;;;;1.98;100.00;100855.09;5132981;27;932;-60
2024/02/17 06:44:06;;;;;;;;;;;;;;;1.91;100.00;100865.69;5133036;27;1057;-59
2024/02/17 06:46:33;;;;;;;;;;;;;;;1.90;100.00;100855.88;5133086;27;1980;-60
2024/02/17 06:49:02;;;;;;;;;;;;;;;1.89;100.00;100860.53;5132772;27;1085;-60
2024/02/17 06:51:29;;;;;;;;;;;;;;;1.97;100.00;100862.47;5114468;27;883;-59
2024/02/17 06:53:55;;;;;;;;;;;;;;;1.94;100.00;100859.56;5132841;27;831;-60
2024/02/17 06:56:22;;;;;;;;;;;;;;;1.86;100.00;100874.00;5132730;27;973;-59
2024/02/17 06:58:49;;;;;;;;;;;;;;;1.88;100.00;100861.66;5132961;28;906;-60
2024/02/17 07:01:16;;;;;;;;;;;;;;;1.94;100.00;100865.84;5132754;28;827;-60
2024/02/17 07:03:42;;;;;;;;;;;;;;;1.93;100.00;100874.34;5132875;28;902;-60
2024/02/17 07:06:09;;;;;;;;;;;;;;;1.98;100.00;100874.19;5132706;28;1914;-60
2024/02/17 07:08:35;;;;;;;;;;;;;;;1.97;100.00;100872.59;5132919;28;910;-60
2024/02/17 07:11:02;;;;;;;;;;;;;;;2.04;100.00;100870.97;5132814;28;856;-60
2024/02/17 07:13:28;;;;;;;;;;;;;;;2.10;100.00;100879.03;5132993;28;936;-60
2024/02/17 07:15:55;;;;;;;;;;;;;;;2.07;100.00;100876.91;5132755;28;1243;-60
2024/02/17 07:18:22;;;;;;;;;;;;;;;2.06;100.00;100876.13;5133017;28;867;-59
2024/02/17 07:20:49;;;;;;;;;;;;;;;2.10;100.00;100888.00;5135565;27;812;-60
2024/02/17 07:23:17;;;;;;;;;;;;;;;2.19;100.00;100882.56;5136920;27;843;-60
2024/02/17 07:25:44;;;;;;;;;;;;;;;2.34;100.00;100886.75;5136744;27;1979;-60
2024/02/17 07:28:12;;;;;;;;;;;;;;;2.40;100.00;100880.00;5136961;27;929;-60
2024/02/17 07:30:41;;;;;;;;;;;;;;;2.60;100.00;100879.38;5136814;27;963;-60
2024/02/17 07:33:09;;;;;;;;;;;;;;;2.69;100.00;100890.28;5136541;27;883;-60
2024/02/17 07:35:37;;;;;;;;;;;;;;;3.04;100.00;100895.69;5136494;27;913;-60
2024/02/17 07:38:05;;;;;;;;;;;;;;;3.46;100.00;100904.09;5136465;27;918;-60
2024/02/17 07:40:31;;;;;;;;;;;;;;;3.67;100.00;100902.22;5136364;27;973;-59
2024/02/17 07:42:58;;;;;;;;;;;;;;;4.34;100.00;100907.94;5136419;27;902;-59
2024/02/17 07:45:24;;;;;;;;;;;;;;;5.21;100.00;100909.91;5136247;27;1965;-60
2024/02/17 07:47:50;;;;;;;;;;;;;;;6.38;100.00;100907.75;5136220;27;920;-60
2024/02/17 07:50:17;;;;;;;;;;;;;;;6.57;100.00;100910.66;5117826;27;847;-59
2024/02/17 07:52:44;;;;;;;;;;;;;;;6.43;100.00;100899.28;5136088;27;897;-60
2024/02/17 07:55:11;;;;;;;;;;;;;;;6.18;100.00;100909.50;5136187;27;883;-60
2024/02/17 07:57:37;;;;;;;;;;;;;;;5.50;100.00;100913.59;5136197;27;831;-60
2024/02/17 08:00:05;;;;;;;;;;;;;;;4.98;100.00;100914.97;5135918;27;871;-60
2024/02/17 08:02:31;;;;;;;;;;;;;;;4.59;100.00;100917.09;5135947;27;875;-59
2024/02/17 08:04:58;;;;;;;;;;;;;;;4.60;100.00;100902.25;5135957;27;913;-59
2024/02/17 08:07:25;;;;;;;;;;;;;;;4.47;100.00;100906.88;5135837;27;1971;-59
2024/02/17 08:09:52;;;;;;;;;;;;;;;4.52;100.00;100905.84;5136261;27;886;-59
2024/02/17 08:12:18;;;;;;;;;;;;;;;4.28;100.00;100903.78;5135961;27;850;-59
2024/02/17 08:14:45;;;;;;;;;;;;;;;4.73;100.00;100905.84;5135821;27;891;-59
2024/02/17 08:17:11;;;;;;;;;;;;;;;5.10;100.00;100917.75;5135814;27;935;-59
2024/02/17 08:19:38;;;;;;;;;;;;;;;5.12;100.00;100922.88;5135885;27;1208;-59
2024/02/17 08:22:05;;;;;;;;;;;;;;;5.04;100.00;100929.28;5135680;27;934;-59
2024/02/17 08:24:32;;;;;;;;;;;;;;;5.04;100.00;100924.59;5135723;27;934;-59
2024/02/17 08:26:58;;;;;;;;;;;;;;;5.34;100.00;100929.91;5135605;27;1894;-59
2024/02/17 08:29:25;;;;;;;;;;;;;;;5.59;100.00;100925.28;5135650;27;956;-59
2024/02/17 08:31:51;;;;;;;;;;;;;;;5.43;100.00;100935.31;5134068;27;911;-59
2024/02/17 08:34:18;;;;;;;;;;;;;;;5.55;100.00;100920.78;5135481;27;863;-59
2024/02/17 08:36:45;;;;;;;;;;;;;;;6.09;100.00;100924.16;5135599;27;843;-59
2024/02/17 08:39:13;;;;;;;;;;;;;;;6.73;100.00;100930.78;5135257;27;871;-59
2024/02/17 08:41:41;;;;;;;;;;;;;;;6.78;100.00;100940.72;5135251;27;1348;-59
2024/02/17 08:44:08;;;;;;;;;;;;;;;6.20;100.00;100934.69;5135974;27;763;-60
2024/02/17 08:46:35;;;;;;;;;;;;;;;5.59;100.00;100930.78;5135355;27;1885;-59
2024/02/17 08:49:01;;;;;;;;;;;;;;;5.66;100.00;100930.19;5135428;27;1256;-58
2024/02/17 08:51:28;;;;;;;;;;;;;;;5.68;100.00;100933.41;5135270;27;1236;-59
2024/02/17 08:53:55;;;;;;;;;;;;;;;5.52;100.00;100942.28;5135094;27;843;-59
2024/02/17 08:56:22;;;;;;;;;;;;;;;5.81;100.00;100940.50;5135159;27;1320;-59
2024/02/17 08:58:49;;;;;;;;;;;;;;;5.92;100.00;100943.59;5135333;27;813;-59
2024/02/17 09:01:16;;;;;;;;;;;;;;;6.16;100.00;100942.00;5134972;27;822;-59
2024/02/17 09:03:46;;;;;;;;;;;;;;;6.69;100.00;100940.84;5134749;27;1369;-59
2024/02/17 09:06:13;;;;;;;;;;;;;;;6.75;100.00;100942.22;5134754;27;1910;-59
2024/02/17 09:08:40;;;;;;;;;;;;;;;6.56;100.00;100942.03;5134672;27;958;-58
2024/02/17 09:11:07;;;;;;;;;;;;;;;6.65;100.00;100936.41;5134548;27;890;-58
2024/02/17 09:13:34;;;;;;;;;;;;;;;6.76;100.00;100943.00;5134953;27;851;-56
2024/02/17 09:47:03;;;;;;;;;;;;;;;4.99;100.00;100880.94;5256661;22;1898;-55
2024/02/17 09:49:33;;;;;;;;;;;;;;;4.89;100.00;100887.66;5072943;28;843;-56
2024/02/17 09:52:00;;;;;;;;;;;;;;;4.84;100.00;100890.63;5072852;28;875;-57
2024/02/17 09:54:26;;;;;;;;;;;;;;;4.89;100.00;100895.09;5072632;28;878;-55
2024/02/17 09:56:53;;;;;;;;;;;;;;;4.91;100.00;100887.31;5072626;28;974;-57
2024/02/17 09:59:20;;;;;;;;;;;;;;;4.98;100.00;100878.56;5072521;28;1047;-58
2024/02/17 10:01:47;;;;;;;;;;;;;;;4.99;100.00;100880.94;5072793;28;946;-57
2024/02/17 10:04:14;;;;;;;;;;;;;;;4.97;100.00;100877.75;5072330;28;826;-58
2024/02/17 10:06:40;;;;;;;;;;;;;;;5.06;100.00;100883.94;5072507;28;1905;-58
2024/02/17 10:09:09;;;;;;;;;;;;;;;5.21;100.00;100868.78;5072328;28;1005;-58
2024/02/17 10:11:36;;;;;;;;;;;;;;;5.26;100.00;100882.25;5072574;28;958;-58
2024/02/17 10:14:04;;;;;;;;;;;;;;;5.30;100.00;100877.69;5072297;28;1055;-58
2024/02/17 10:16:31;;;;;;;;;;;;;;;5.34;100.00;100869.59;5072435;28;863;-58
2024/02/17 10:18:59;;;;;;;;;;;;;;;5.45;100.00;100873.50;5072283;28;879;-58
2024/02/17 10:21:25;;;;;;;;;;;;;;;5.44;100.00;100876.56;5072154;28;839;-58
2024/02/17 10:23:53;;;;;;;;;;;;;;;5.51;100.00;100888.59;5072008;28;963;-58
2024/02/17 10:26:19;;;;;;;;;;;;;;;5.82;100.00;100889.94;5071915;28;1889;-58
2024/02/17 10:28:54;;;;;;;;;;;;;;;5.92;100.00;100885.94;5072004;28;973;-58
2024/02/17 10:31:21;;;;;;;;;;;;;;;5.81;100.00;100880.13;5072069;28;824;-58
2024/02/17 10:33:48;;;;;;;;;;;;;;;5.79;100.00;100887.13;5072042;28;881;-58
2024/02/17 10:36:22;;;;;;;;;;;;;;;6.15;100.00;100886.31;5071899;28;918;-58
2024/02/17 10:38:50;;;;;;;;;;;;;;;6.24;100.00;100889.72;5072411;28;800;-58
2024/02/17 10:41:18;;;;;;;;;;;;;;;6.23;100.00;100887.31;5072072;28;918;-58
2024/02/17 10:43:47;;;;;;;;;;;;;;;6.14;100.00;100887.44;5071964;28;816;-58
2024/02/17 10:46:18;;;;;;;;;;;;;;;6.05;100.00;100884.81;5071792;28;1890;-59
2024/02/17 10:48:49;;;;;;;;;;;;;;;6.08;100.00;100889.63;5072077;28;846;-58
2024/02/17 10:51:15;;;;;;;;;;;;;;;6.27;100.00;100890.97;5071843;28;820;-58
2024/02/17 10:53:47;;;;;;;;;;;;;;;6.33;100.00;100890.38;5071570;28;962;-58
2024/02/17 10:56:17;;;;;;;;;;;;;;;6.41;100.00;100887.84;5071200;28;902;-58
2024/02/17 10:58:46;;;;;;;;;;;;;;;6.21;100.00;100881.34;5071632;28;915;-58
2024/02/17 11:01:17;;;;;;;;;;;;;;;5.93;100.00;100885.63;5071760;28;1325;-58
2024/02/17 11:03:45;;;;;;;;;;;;;;;6.04;100.00;100894.22;5071615;28;835;-58
2024/02/17 11:06:14;;;;;;;;;;;;;;;6.18;100.00;100895.78;5071759;28;1971;-58
2024/02/17 11:08:41;;;;;;;;;;;;;;;6.57;100.00;100894.19;5071400;28;878;-58
2024/02/17 11:11:26;;;;;;;;;;;;;;;6.61;100.00;100900.59;5071784;28;913;-58
2024/02/17 11:13:55;;;;;;;;;;;;;;;6.48;100.00;100897.06;5071448;28;870;-58
2024/02/17 11:16:22;;;;;;;;;;;;;;;6.55;100.00;100907.50;5071592;28;812;-58
2024/02/17 11:18:54;;;;;;;;;;;;;;;6.46;100.00;100898.56;5053431;28;961;-58
2024/02/17 11:21:38;;;;;;;;;;;;;;;6.80;100.00;100894.44;5071585;28;875;-58
2024/02/17 11:24:10;;;;;;;;;;;;;;;6.58;99.38;100895.81;5053535;28;1426;-58
2024/02/17 11:26:37;;;;;;;;;;;;;;;6.38;100.00;100896.75;5071294;28;1882;-55
2024/02/17 11:29:04;;;;;;;;;;;;;;;6.34;100.00;100902.97;5071487;28;823;-55
2024/02/17 11:31:31;;;;;;;;;;;;;;;6.04;100.00;100910.69;5071479;28;871;-57
2024/02/17 11:34:01;;;;;;;;;;;;;;;5.82;100.00;100908.38;5071438;28;918;-57
2024/02/17 11:36:30;;;;;;;;;;;;;;;5.73;100.00;100903.00;5071651;28;839;-57
2024/02/17 11:38:59;;;;;;;;;;;;;;;5.77;100.00;100906.66;5071386;28;824;-56
2024/02/17 11:41:27;;;;;;;;;;;;;;;6.15;100.00;100900.03;5071161;28;945;-57
2024/02/17 11:43:54;;;;;;;;;;;;;;;6.28;100.00;100904.34;5071247;28;914;-57
2024/02/17 11:46:21;;;;;;;;;;;;;;;6.06;100.00;100902.09;5071236;28;1897;-58
2024/02/17 11:48:48;;;;;;;;;;;;;;;5.93;100.00;100907.56;5071237;28;962;-56
2024/02/17 11:51:18;;;;;;;;;;;;;;;5.93;100.00;100904.81;5071130;28;1009;-56
2024/02/17 11:53:48;;;;;;;;;;;;;;;5.98;100.00;100908.53;5071244;28;878;-57
2024/02/17 11:56:15;;;;;;;;;;;;;;;6.04;100.00;100901.63;5069899;28;1189;-58
2024/02/17 11:58:43;;;;;;;;;;;;;;;5.95;100.00;100901.75;5071069;28;895;-58
2024/02/17 12:01:17;;;;;;;;;;;;;;;5.83;100.00;100899.00;5071389;28;1108;-58
2024/02/17 12:03:44;;;;;;;;;;;;;;;5.73;100.00;100900.25;5071037;28;902;-57
2024/02/17 12:06:11;;;;;;;;;;;;;;;5.76;100.00;100907.81;5072544;28;1898;-58
2024/02/17 12:08:40;;;;;;;;;;;;;;;5.78;100.00;100901.97;5074621;28;933;-58
2024/02/17 12:11:07;;;;;;;;;;;;;;;5.92;100.00;100902.41;5074662;28;926;-58
2024/02/17 12:13:34;;;;;;;;;;;;;;;5.97;100.00;100898.66;5074463;28;953;-58
2024/02/17 12:16:03;;;;;;;;;;;;;;;5.96;100.00;100897.09;5074541;28;974;-58
2024/02/17 12:18:31;;;;;;;;;;;;;;;5.94;100.00;100894.66;5074418;28;922;-59
2024/02/17 12:21:00;;;;;;;;;;;;;;;5.82;100.00;100908.38;5056810;28;926;-58
2024/02/17 12:23:28;;;;;;;;;;;;;;;5.66;100.00;100908.25;5074386;28;903;-58
2024/02/17 12:25:55;;;;;;;;;;;;;;;5.57;100.00;100910.28;5074371;28;1877;-58
2024/02/17 12:28:22;;;;;;;;;;;;;;;5.49;100.00;100915.53;5074458;28;1197;-58
2024/02/17 12:30:50;;;;;;;;;;;;;;;5.64;100.00;100913.28;5074642;28;808;-58
2024/02/17 12:33:19;;;;;;;;;;;;;;;5.81;100.00;100910.31;5074564;28;819;-58
2024/02/17 12:35:48;;;;;;;;;;;;;;;5.72;100.00;100912.38;5074046;28;880;-58
2024/02/17 12:38:19;;;;;;;;;;;;;;;5.71;100.00;100913.50;5074256;28;840;-58
2024/02/17 12:40:46;;;;;;;;;;;;;;;5.74;100.00;100915.59;5073988;28;930;-58
2024/02/17 12:43:24;;;;;;;;;;;;;;;5.50;100.00;100919.91;5073924;28;964;-58
2024/02/17 12:45:51;;;;;;;;;;;;;;;5.43;100.00;100914.16;5073788;28;1882;-59
2024/02/17 12:48:20;;;;;;;;;;;;;;;5.52;100.00;100914.84;5074321;28;819;-58
2024/02/17 12:50:48;;;;;;;;;;;;;;;5.53;100.00;100910.97;5074307;28;923;-58
2024/02/17 12:53:15;;;;;;;;;;;;;;;5.43;100.00;100914.16;5073869;28;946;-58
2024/02/17 12:55:42;;;;;;;;;;;;;;;5.31;100.00;100914.13;5074060;28;828;-59
2024/02/17 12:58:10;;;;;;;;;;;;;;;5.40;100.00;100911.28;5073798;28;891;-58
2024/02/17 13:00:38;;;;;;;;;;;;;;;5.59;100.00;100917.06;5073754;28;860;-58
2024/02/17 13:03:06;;;;;;;;;;;;;;;5.78;100.00;100908.25;5073511;28;939;-58
2024/02/17 13:05:33;;;;;;;;;;;;;;;5.76;100.00;100910.56;5073469;28;1906;-58
2024/02/17 13:08:00;;;;;;;;;;;;;;;5.40;100.00;100922.25;5073509;28;919;-59
2024/02/17 13:10:26;;;;;;;;;;;;;;;5.32;100.00;100929.47;5073524;28;881;-58
2024/02/17 13:12:53;;;;;;;;;;;;;;;5.28;100.00;100934.81;5073496;28;980;-58
2024/02/17 13:15:20;;;;;;;;;;;;;;;5.23;100.00;100932.28;5073374;28;1028;-58
2024/02/17 13:17:47;;;;;;;;;;;;;;;5.10;100.00;100927.91;5072827;28;843;-58
2024/02/17 13:20:14;;;;;;;;;;;;;;;5.26;100.00;100922.59;5073255;28;1041;-58
2024/02/17 13:22:42;;;;;;;;;;;;;;;5.31;100.00;100930.59;5073554;28;899;-58
2024/02/17 13:25:09;;;;;;;;;;;;;;;5.20;100.00;100929.41;5073325;28;925;-58
2024/02/17 13:27:38;;;;;;;;;;;;;;;5.24;100.00;100930.34;5073593;28;1894;-58
2024/02/17 13:30:09;;;;;;;;;;;;;;;5.21;100.00;100933.78;5073198;28;890;-58